Terminal Aerodrome Forecast
Issued by NWS

Home | Current Version | Previous Version | Text Only | Print | Product List | Glossary On
Versions: 1 2 3 4 5 6 7 8 9 10 11 12 13 14 15 16 17 18 19 20 21 22 23 24 25 26 27 28 29 30 31 32 33 34 35 36 37 38 39 40 41 42 43 44 45 46
000
FTUS46 KOTX 251723
TAFPUW
TAF
KPUW 251723Z 2518/2618 27007KT P6SM SCT080 OVC130
     FM260000 28006KT P6SM VCSH BKN080 BKN120
     FM260500 VRB02KT P6SM SCT060 BKN150
     FM261200 22004KT P6SM VCSH BKN060 BKN100=

USA.gov is the U.S. government's official web portal to all federal, state and local government web resources and services.